createdAt,value
2022-11-15T00:02:27.244Z,14.10
2022-11-15T00:07:55.977Z,13.38
2022-11-15T00:13:18.613Z,15.23
2022-11-15T00:18:42.482Z,14.10
2022-11-15T00:29:31.013Z,15.65
2022-11-15T00:34:53.533Z,13.18
2022-11-15T00:40:17.654Z,14.38
2022-11-15T00:45:39.865Z,14.65
2022-11-15T00:51:02.132Z,15.13
2022-11-15T00:56:26.119Z,14.98
2022-11-15T01:01:48.471Z,15.40
2022-11-15T01:07:10.551Z,15.95
2022-11-15T01:12:34.542Z,14.68
2022-11-15T01:17:57.068Z,16.30
2022-11-15T01:23:19.231Z,15.65
2022-11-15T01:28:44.113Z,15.65
2022-11-15T01:34:06.399Z,15.20
2022-11-15T01:39:28.957Z,15.00
2022-11-15T01:44:54.230Z,16.52
2022-11-15T01:50:19.110Z,9.00
2022-11-15T01:55:41.349Z,15.85
2022-11-15T02:01:05.276Z,14.70
2022-11-15T02:06:27.830Z,16.60
2022-11-15T02:11:51.106Z,16.23
2022-11-15T02:17:33.849Z,15.70
2022-11-15T02:23:13.753Z,17.70
2022-11-15T02:28:49.009Z,15.88
2022-11-15T02:34:21.883Z,16.40
2022-11-15T02:39:49.469Z,16.63
2022-11-15T02:45:15.574Z,16.60
2022-11-15T02:50:39.305Z,15.80
2022-11-15T02:56:01.339Z,15.23
2022-11-15T03:01:32.778Z,16.48
2022-11-15T03:07:01.721Z,14.23
2022-11-15T03:12:30.456Z,15.52
2022-11-15T03:17:57.830Z,15.65
2022-11-15T03:23:21.583Z,16.15
2022-11-15T03:28:47.918Z,17.33
2022-11-15T03:34:13.722Z,16.45
2022-11-15T03:39:37.293Z,16.17
2022-11-15T03:45:04.051Z,16.88
2022-11-15T03:50:27.027Z,17.30
2022-11-15T03:55:50.574Z,17.48
2022-11-15T04:01:14.039Z,16.73
2022-11-15T04:06:36.424Z,19.73
2022-11-15T04:11:59.930Z,18.23
2022-11-15T04:17:22.266Z,19.80
2022-11-15T04:23:02.523Z,19.40
2022-11-15T04:28:26.323Z,17.73
2022-11-15T04:33:48.513Z,19.23
2022-11-15T04:39:10.561Z,18.83
2022-11-15T04:44:34.113Z,18.77
2022-11-15T04:49:56.356Z,19.10
2022-11-15T04:55:18.667Z,18.90
2022-11-15T05:00:42.219Z,18.60
2022-11-15T05:06:04.913Z,18.42
2022-11-15T05:11:28.367Z,19.15
2022-11-15T05:16:52.116Z,18.70
2022-11-15T05:22:14.347Z,18.15
2022-11-15T05:27:36.670Z,18.17
2022-11-15T05:33:00.183Z,18.15
2022-11-15T05:38:22.154Z,19.90
2022-11-15T05:43:45.331Z,19.10
2022-11-15T05:49:10.241Z,18.20
2022-11-15T05:54:33.589Z,18.80
2022-11-15T05:59:56.390Z,15.30
2022-11-15T06:05:19.981Z,16.50
2022-11-15T06:10:42.261Z,15.45
2022-11-15T06:16:04.458Z,15.25
2022-11-15T06:21:30.245Z,15.35
2022-11-15T06:26:52.849Z,15.05
2022-11-15T06:32:14.940Z,16.13
2022-11-15T06:37:38.484Z,14.73
2022-11-15T06:43:01.368Z,15.38
2022-11-15T06:48:23.378Z,17.30
2022-11-15T06:53:46.698Z,15.48
2022-11-15T06:59:09.086Z,14.98
2022-11-15T07:04:31.718Z,15.90
2022-11-15T07:09:55.444Z,15.88
2022-11-15T07:15:18.125Z,13.07
2022-11-15T07:20:42.713Z,16.17
2022-11-15T07:26:06.380Z,17.38
2022-11-15T07:31:29.127Z,18.30
2022-11-15T07:36:51.154Z,17.63
2022-11-15T07:42:31.803Z,16.98
2022-11-15T07:47:54.679Z,16.73
2022-11-15T07:53:17.424Z,16.33
2022-11-15T07:58:41.547Z,17.50
2022-11-15T08:04:03.617Z,16.88
2022-11-15T08:09:25.562Z,16.70
2022-11-15T08:14:49.453Z,17.33
2022-11-15T08:20:12.870Z,17.63
2022-11-15T08:25:36.174Z,17.30
2022-11-15T08:30:59.811Z,18.02
2022-11-15T08:36:22.032Z,18.73
2022-11-15T08:41:45.709Z,19.38
2022-11-15T08:47:09.410Z,19.02
2022-11-15T08:52:31.786Z,19.17
2022-11-15T08:57:53.879Z,18.70
2022-11-15T09:03:17.460Z,19.52
2022-11-15T09:08:51.629Z,18.80
2022-11-15T09:14:14.442Z,20.02
2022-11-15T09:19:38.084Z,21.40
2022-11-15T09:25:00.313Z,19.25
2022-11-15T09:30:22.884Z,20.17
2022-11-15T09:35:46.606Z,21.10
2022-11-15T09:41:36.897Z,20.58
2022-11-15T09:47:05.762Z,21.58
2022-11-15T09:52:31.046Z,21.60
2022-11-15T09:57:41.538Z,19.83
2022-11-15T10:02:59.089Z,21.15
2022-11-15T10:08:08.946Z,20.88
2022-11-15T10:13:22.747Z,21.38
2022-11-15T10:18:30.871Z,21.42
2022-11-15T10:23:36.268Z,22.05
2022-11-15T10:28:40.210Z,22.17
2022-11-15T10:33:43.978Z,21.85
2022-11-15T10:38:57.965Z,21.90
2022-11-15T10:44:14.070Z,22.98
2022-11-15T10:49:20.662Z,21.75
2022-11-15T10:54:30.766Z,22.15
2022-11-15T10:59:39.013Z,21.98
2022-11-15T11:04:52.182Z,21.25
2022-11-15T11:10:49.253Z,20.83
2022-11-15T11:15:45.897Z,20.80
2022-11-15T11:20:53.657Z,21.17
2022-11-15T11:26:12.846Z,20.33
2022-11-15T11:31:25.388Z,19.35
2022-11-15T11:36:34.742Z,19.42
2022-11-15T11:41:49.272Z,20.63
2022-11-15T11:46:57.831Z,20.20
2022-11-15T11:52:05.681Z,19.38
2022-11-15T11:57:17.208Z,20.25
2022-11-15T12:02:27.031Z,19.95
2022-11-15T12:07:34.542Z,20.55
2022-11-15T12:12:45.489Z,20.92
2022-11-15T12:17:49.819Z,19.25
2022-11-15T12:22:57.684Z,19.45
2022-11-15T12:28:10.625Z,19.88
2022-11-15T12:33:36.932Z,19.33
2022-11-15T12:38:58.891Z,18.98
2022-11-15T12:44:04.970Z,19.35
2022-11-15T12:49:12.601Z,17.67
2022-11-15T12:54:55.374Z,18.30
2022-11-15T13:00:04.311Z,17.63
2022-11-15T13:05:54.513Z,18.92
2022-11-15T13:10:58.390Z,21.23
2022-11-15T13:16:04.046Z,21.02
2022-11-15T13:21:39.389Z,18.88
2022-11-15T13:26:43.414Z,19.00
2022-11-15T13:31:49.165Z,18.83
2022-11-15T13:36:55.056Z,19.58
2022-11-15T13:41:59.255Z,18.35
2022-11-15T13:47:06.745Z,18.70
2022-11-15T13:52:15.016Z,18.58
2022-11-15T13:57:22.871Z,19.42
2022-11-15T14:02:32.958Z,19.00
2022-11-15T14:07:44.313Z,17.55
2022-11-15T14:12:53.074Z,18.67
2022-11-15T14:17:58.327Z,19.70
2022-11-15T14:23:08.209Z,17.95
2022-11-15T14:28:32.017Z,16.85
2022-11-15T14:33:38.458Z,17.63
2022-11-15T14:38:43.926Z,18.08
2022-11-15T14:43:47.885Z,17.88
2022-11-15T14:48:53.240Z,18.65
2022-11-15T14:53:57.490Z,9.90
2022-11-15T14:59:01.366Z,17.50
2022-11-15T15:04:06.628Z,17.92
2022-11-15T15:09:10.548Z,18.00
2022-11-15T15:14:17.266Z,17.35
2022-11-15T15:19:26.083Z,19.13
2022-11-15T15:24:30.197Z,17.13
2022-11-15T15:29:34.080Z,19.30
2022-11-15T15:34:43.102Z,17.58
2022-11-15T15:39:53.961Z,19.92
2022-11-15T15:44:57.782Z,19.02
2022-11-15T15:50:03.583Z,19.35
2022-11-15T15:55:08.049Z,18.73
2022-11-15T16:00:13.285Z,18.83
2022-11-15T16:05:19.195Z,11.83
2022-11-15T16:10:26.012Z,18.95
2022-11-15T16:15:32.529Z,19.70
2022-11-15T16:20:40.446Z,18.77
2022-11-15T16:25:47.805Z,18.90
2022-11-15T16:31:00.955Z,19.35
2022-11-15T16:36:08.155Z,19.90
2022-11-15T16:41:11.958Z,19.15
2022-11-15T16:46:18.382Z,19.98
2022-11-15T16:51:24.133Z,19.45
2022-11-15T16:56:29.465Z,19.92
2022-11-15T17:01:35.468Z,20.13
2022-11-15T17:11:45.411Z,21.25
2022-11-15T17:16:49.314Z,21.38
2022-11-15T17:21:54.555Z,21.85
2022-11-15T17:26:58.329Z,14.50
2022-11-15T17:32:02.324Z,21.70
2022-11-15T17:37:07.517Z,22.23
2022-11-15T17:42:11.286Z,21.67
2022-11-15T17:47:15.053Z,23.63
2022-11-15T17:52:20.419Z,22.55
2022-11-15T17:57:24.224Z,19.70
2022-11-15T18:02:28.217Z,22.83
2022-11-15T18:07:33.508Z,21.65
2022-11-15T18:12:37.437Z,21.20
2022-11-15T18:17:41.419Z,23.33
2022-11-15T18:22:47.307Z,21.77
2022-11-15T18:27:55.318Z,22.88
2022-11-15T18:32:59.118Z,22.70
2022-11-15T18:38:04.574Z,22.02
2022-11-15T18:43:08.358Z,23.30
2022-11-15T18:48:12.137Z,25.63
2022-11-15T18:53:17.554Z,23.52
2022-11-15T18:58:21.338Z,27.63
2022-11-15T19:03:25.223Z,25.50
2022-11-15T19:08:34.294Z,25.17
2022-11-15T19:13:39.492Z,24.65
2022-11-15T19:18:43.745Z,25.98
2022-11-15T19:23:49.107Z,26.38
2022-11-15T19:28:53.879Z,25.17
2022-11-15T19:33:59.678Z,26.17
2022-11-15T19:39:08.562Z,27.15
2022-11-15T19:44:13.693Z,29.98
2022-11-15T19:49:17.501Z,24.73
2022-11-15T19:54:22.702Z,29.52
2022-11-15T19:59:26.629Z,25.90
2022-11-15T20:04:30.613Z,30.75
2022-11-15T20:09:35.919Z,38.22
2022-11-15T20:14:39.757Z,26.50
2022-11-15T20:19:43.695Z,33.13
2022-11-15T20:24:48.963Z,33.65
2022-11-15T20:29:54.662Z,39.80
2022-11-15T20:34:58.473Z,44.45
2022-11-15T20:40:03.662Z,46.67
2022-11-15T20:45:08.585Z,44.77
2022-11-15T20:50:40.487Z,45.05
2022-11-15T20:55:42.566Z,46.72
2022-11-15T21:00:46.886Z,47.65
2022-11-15T21:05:50.695Z,40.55
2022-11-15T21:11:13.686Z,41.28
2022-11-15T21:16:17.730Z,42.85
2022-11-15T21:21:21.630Z,41.63
2022-11-15T21:26:26.889Z,46.10
2022-11-15T21:31:32.077Z,41.67
2022-11-15T21:36:35.948Z,40.03
2022-11-15T21:41:41.132Z,44.92
2022-11-15T21:46:44.963Z,40.77
2022-11-15T21:51:48.766Z,47.88
2022-11-15T21:56:54.048Z,49.33
2022-11-15T22:02:16.053Z,47.57
2022-11-15T22:07:20.391Z,52.65
2022-11-15T22:12:29.568Z,57.08
2022-11-15T22:17:47.709Z,62.50
2022-11-15T22:22:51.705Z,67.63
2022-11-15T22:27:57.327Z,67.47
2022-11-15T22:33:01.450Z,71.43
2022-11-15T22:38:05.801Z,140.68
2022-11-15T22:43:11.552Z,124.18
2022-11-15T22:48:15.703Z,133.95
2022-11-15T22:53:20.090Z,143.30
2022-11-15T22:58:27.765Z,164.43
2022-11-15T23:03:32.688Z,158.38
2022-11-15T23:08:37.209Z,156.45
2022-11-15T23:13:43.154Z,145.38
2022-11-15T23:18:47.032Z,138.35
2022-11-15T23:23:50.957Z,145.60
2022-11-15T23:28:57.524Z,168.88
2022-11-15T23:34:01.878Z,173.13
2022-11-15T23:39:06.010Z,186.55
2022-11-15T23:44:11.825Z,180.68
2022-11-15T23:49:15.887Z,171.05
2022-11-15T23:54:20.197Z,173.65
2022-11-15T23:59:25.571Z,180.05
